Main page
METAR-TAF:

METAR-TAF

Airports :

RAF Lakenheath

Lakenheath, England

latitude: 52-25N, longitude: 000-34E, elevation: 10 m

Current weather observation

The report was made 44 minutes ago, at 08:56 UTC
Wind 12 kt from the West/Southwest
Temperature 26°C
Humidity 70%
Pressure 1011 hPa
Visibility 10 km or more
Clear sky

METAR: EGUL 240856Z AUTO 25012KT 9999 CLR 26/20 A2984 RMK AO2 SLP108 T02600203 50009 $

Time: 10:40 (09:40 UTC)

Forecast

The report was made 3 hours and 47 minutes ago, at 05:53 UTC
Forecast valid from 24 at 05 UTC to 25 at 11 UTC
Wind 12 kt from the South
Visibility 10 km or more
Few clouds at a height of 3000 ft
Scattered clouds at a height of 10000 ft
Becoming
from 24 at 11 UTC to 24 at 12 UTC
Wind 9 kt from the West
Visibility 10 km or more
Scattered clouds at a height of 8000 ft

TAF: EGUL 240553Z 2405/2511 19012KT 9999 FEW030 SCT100 QNH2982INS BECMG 2411/2412 26009KT 9999 SCT080 QNH2987INS TX32/2413Z TN20/2405Z

Weather observations and forecasts of more than 4000 airports (METAR and TAF reports).

The available stations are represented by yellow and red dots on the map.

Hover mouse over dot to see the name of the station.

Then click to see weather observations and forecasts.

To change the map : click on the green buttons with a black cross to zoom in, on the green button with a dash to zoom out, or on the green arrows for adjacent maps.


METAR-TAF: